sensor_id;sensor_type;location;lat;lon;timestamp;pressure;altitude;pressure_sealevel;temperature;humidity
18275;BME280;19470;49.322;7.218;2022-10-16T00:01:07;98457.31;;;20.97;100.00
18275;BME280;19470;49.322;7.218;2022-10-16T00:03:34;98453.25;;;21.52;100.00
18275;BME280;19470;49.322;7.218;2022-10-16T00:06:01;98446.75;;;21.44;100.00
18275;BME280;19470;49.322;7.218;2022-10-16T00:08:28;98448.19;;;21.41;100.00
18275;BME280;19470;49.322;7.218;2022-10-16T00:11:00;98457.38;;;21.40;100.00
18275;BME280;19470;49.322;7.218;2022-10-16T00:13:27;98462.16;;;20.60;100.00
18275;BME280;19470;49.322;7.218;2022-10-16T00:15:55;98463.81;;;20.87;100.00
18275;BME280;19470;49.322;7.218;2022-10-16T00:18:22;98455.69;;;20.61;100.00
18275;BME280;19470;49.322;7.218;2022-10-16T00:20:48;98449.41;;;21.01;100.00
18275;BME280;19470;49.322;7.218;2022-10-16T00:23:15;98450.53;;;20.91;100.00
18275;BME280;19470;49.322;7.218;2022-10-16T00:25:41;98433.44;;;21.04;100.00
18275;BME280;19470;49.322;7.218;2022-10-16T00:28:09;98438.25;;;20.59;100.00
18275;BME280;19470;49.322;7.218;2022-10-16T00:30:37;98433.59;;;21.08;100.00
18275;BME280;19470;49.322;7.218;2022-10-16T00:33:04;98435.63;;;20.36;100.00
18275;BME280;19470;49.322;7.218;2022-10-16T00:35:30;98442.38;;;20.48;100.00
18275;BME280;19470;49.322;7.218;2022-10-16T00:37:57;98449.81;;;19.88;100.00
18275;BME280;19470;49.322;7.218;2022-10-16T00:40:24;98455.06;;;20.25;100.00
18275;BME280;19470;49.322;7.218;2022-10-16T00:42:50;98450.59;;;19.89;100.00
18275;BME280;19470;49.322;7.218;2022-10-16T00:45:18;98449.34;;;19.86;100.00
18275;BME280;19470;49.322;7.218;2022-10-16T00:47:45;98455.41;;;19.70;100.00
18275;BME280;19470;49.322;7.218;2022-10-16T00:50:19;98451.78;;;19.97;100.00
18275;BME280;19470;49.322;7.218;2022-10-16T00:52:48;98448.31;;;20.45;100.00
18275;BME280;19470;49.322;7.218;2022-10-16T00:55:16;98453.88;;;21.14;100.00
18275;BME280;19470;49.322;7.218;2022-10-16T00:57:43;98470.81;;;21.14;100.00
18275;BME280;19470;49.322;7.218;2022-10-16T01:00:13;98461.47;;;21.21;100.00
18275;BME280;19470;49.322;7.218;2022-10-16T01:02:42;98451.94;;;21.06;100.00
18275;BME280;19470;49.322;7.218;2022-10-16T01:05:08;98463.81;;;20.96;100.00
18275;BME280;19470;49.322;7.218;2022-10-16T01:07:43;98458.75;;;21.21;100.00
18275;BME280;19470;49.322;7.218;2022-10-16T01:10:19;98460.81;;;20.98;100.00
18275;BME280;19470;49.322;7.218;2022-10-16T01:12:52;98470.44;;;20.73;100.00
18275;BME280;19470;49.322;7.218;2022-10-16T01:15:25;98475.56;;;21.00;100.00
18275;BME280;19470;49.322;7.218;2022-10-16T01:17:58;98470.53;;;21.33;100.00
18275;BME280;19470;49.322;7.218;2022-10-16T01:20:30;98467.19;;;21.54;100.00
18275;BME280;19470;49.322;7.218;2022-10-16T01:23:14;98478.41;;;20.95;100.00
18275;BME280;19470;49.322;7.218;2022-10-16T01:25:57;98472.88;;;21.26;100.00
18275;BME280;19470;49.322;7.218;2022-10-16T01:28:34;98456.41;;;21.54;100.00
18275;BME280;19470;49.322;7.218;2022-10-16T01:31:03;98468.75;;;21.55;100.00
18275;BME280;19470;49.322;7.218;2022-10-16T01:33:35;98470.81;;;21.66;100.00
18275;BME280;19470;49.322;7.218;2022-10-16T01:36:10;98467.34;;;21.40;100.00
18275;BME280;19470;49.322;7.218;2022-10-16T01:38:39;98466.38;;;21.10;100.00
18275;BME280;19470;49.322;7.218;2022-10-16T01:41:09;98474.19;;;21.46;100.00
18275;BME280;19470;49.322;7.218;2022-10-16T01:43:41;98476.22;;;21.49;100.00
18275;BME280;19470;49.322;7.218;2022-10-16T01:46:10;98479.84;;;21.27;100.00
18275;BME280;19470;49.322;7.218;2022-10-16T01:48:39;98485.19;;;20.92;100.00
18275;BME280;19470;49.322;7.218;2022-10-16T01:51:09;98499.88;;;20.78;100.00
18275;BME280;19470;49.322;7.218;2022-10-16T01:53:37;98490.00;;;21.13;100.00
18275;BME280;19470;49.322;7.218;2022-10-16T01:56:09;98489.69;;;21.40;100.00
18275;BME280;19470;49.322;7.218;2022-10-16T01:58:42;98488.88;;;21.23;100.00
18275;BME280;19470;49.322;7.218;2022-10-16T02:01:11;98490.03;;;21.48;100.00
18275;BME280;19470;49.322;7.218;2022-10-16T02:03:42;98492.72;;;21.39;100.00
18275;BME280;19470;49.322;7.218;2022-10-16T02:06:11;98485.34;;;20.96;100.00
18275;BME280;19470;49.322;7.218;2022-10-16T02:08:38;98487.25;;;20.87;100.00
18275;BME280;19470;49.322;7.218;2022-10-16T02:11:06;98496.13;;;20.96;100.00
18275;BME280;19470;49.322;7.218;2022-10-16T02:13:35;98491.59;;;21.40;100.00
18275;BME280;19470;49.322;7.218;2022-10-16T02:16:06;98484.00;;;21.42;100.00
18275;BME280;19470;49.322;7.218;2022-10-16T02:18:32;98481.16;;;21.47;100.00
18275;BME280;19470;49.322;7.218;2022-10-16T02:21:01;98478.00;;;21.36;100.00
18275;BME280;19470;49.322;7.218;2022-10-16T02:23:45;98477.00;;;21.15;100.00
18275;BME280;19470;49.322;7.218;2022-10-16T02:26:18;98481.56;;;21.06;100.00
18275;BME280;19470;49.322;7.218;2022-10-16T02:28:48;98477.00;;;21.15;100.00
18275;BME280;19470;49.322;7.218;2022-10-16T02:31:27;98484.56;;;20.96;100.00
18275;BME280;19470;49.322;7.218;2022-10-16T02:33:58;98489.41;;;20.67;100.00
18275;BME280;19470;49.322;7.218;2022-10-16T02:36:26;98496.25;;;20.82;100.00
18275;BME280;19470;49.322;7.218;2022-10-16T02:38:53;98498.13;;;20.73;100.00
18275;BME280;19470;49.322;7.218;2022-10-16T02:41:21;98494.94;;;20.31;100.00
18275;BME280;19470;49.322;7.218;2022-10-16T02:43:48;98494.06;;;20.84;100.00
18275;BME280;19470;49.322;7.218;2022-10-16T02:46:15;98495.97;;;21.01;100.00
18275;BME280;19470;49.322;7.218;2022-10-16T02:48:44;98498.47;;;20.80;100.00
18275;BME280;19470;49.322;7.218;2022-10-16T02:51:10;98500.22;;;20.85;100.00
18275;BME280;19470;49.322;7.218;2022-10-16T02:53:37;98499.50;;;20.53;100.00
18275;BME280;19470;49.322;7.218;2022-10-16T02:56:04;98499.09;;;20.77;100.00
18275;BME280;19470;49.322;7.218;2022-10-16T02:58:30;98503.88;;;20.98;100.00
18275;BME280;19470;49.322;7.218;2022-10-16T03:00:57;98501.56;;;21.13;100.00
18275;BME280;19470;49.322;7.218;2022-10-16T03:03:23;98507.69;;;21.05;100.00
18275;BME280;19470;49.322;7.218;2022-10-16T03:05:51;98490.06;;;20.73;100.00
18275;BME280;19470;49.322;7.218;2022-10-16T03:08:17;98500.19;;;20.36;100.00
18275;BME280;19470;49.322;7.218;2022-10-16T03:10:48;98496.38;;;20.68;100.00
18275;BME280;19470;49.322;7.218;2022-10-16T03:13:15;98498.13;;;20.73;100.00
18275;BME280;19470;49.322;7.218;2022-10-16T03:15:41;98492.94;;;20.85;100.00
18275;BME280;19470;49.322;7.218;2022-10-16T03:18:08;98503.69;;;19.83;100.00
18275;BME280;19470;49.322;7.218;2022-10-16T03:20:34;98505.38;;;20.02;100.00
18275;BME280;19470;49.322;7.218;2022-10-16T03:23:02;98505.31;;;19.62;100.00
18275;BME280;19470;49.322;7.218;2022-10-16T03:25:29;98496.78;;;20.22;100.00
18275;BME280;19470;49.322;7.218;2022-10-16T03:27:56;98483.19;;;20.50;100.00
18275;BME280;19470;49.322;7.218;2022-10-16T03:30:22;98497.47;;;19.97;100.00
18275;BME280;19470;49.322;7.218;2022-10-16T03:32:49;98511.38;;;19.99;100.00
18275;BME280;19470;49.322;7.218;2022-10-16T03:35:19;98495.56;;;19.75;100.00
18275;BME280;19470;49.322;7.218;2022-10-16T03:37:45;98504.06;;;19.68;100.00
18275;BME280;19470;49.322;7.218;2022-10-16T03:40:13;98503.19;;;20.35;100.00
18275;BME280;19470;49.322;7.218;2022-10-16T03:42:42;98509.16;;;20.23;100.00
18275;BME280;19470;49.322;7.218;2022-10-16T03:45:10;98512.63;;;20.24;100.00
18275;BME280;19470;49.322;7.218;2022-10-16T03:47:36;98518.59;;;19.67;100.00
18275;BME280;19470;49.322;7.218;2022-10-16T03:50:04;98515.47;;;19.74;100.00
18275;BME280;19470;49.322;7.218;2022-10-16T03:52:31;98518.22;;;19.82;100.00
18275;BME280;19470;49.322;7.218;2022-10-16T03:54:58;98518.84;;;20.02;100.00
18275;BME280;19470;49.322;7.218;2022-10-16T03:57:26;98521.97;;;21.06;100.00
18275;BME280;19470;49.322;7.218;2022-10-16T03:59:52;98510.94;;;20.36;100.00
18275;BME280;19470;49.322;7.218;2022-10-16T04:02:18;98506.59;;;21.15;100.00
18275;BME280;19470;49.322;7.218;2022-10-16T04:04:45;98494.41;;;21.26;100.00
18275;BME280;19470;49.322;7.218;2022-10-16T04:07:12;98480.81;;;21.31;100.00
18275;BME280;19470;49.322;7.218;2022-10-16T04:09:38;98497.25;;;21.04;100.00
18275;BME280;19470;49.322;7.218;2022-10-16T04:12:05;98488.38;;;21.12;100.00
18275;BME280;19470;49.322;7.218;2022-10-16T04:14:32;98488.94;;;20.74;100.00
18275;BME280;19470;49.322;7.218;2022-10-16T04:16:59;98494.00;;;20.36;100.00
18275;BME280;19470;49.322;7.218;2022-10-16T04:19:25;98498.09;;;20.25;100.00
18275;BME280;19470;49.322;7.218;2022-10-16T04:21:52;98501.25;;;19.96;100.00
18275;BME280;19470;49.322;7.218;2022-10-16T04:24:33;98512.34;;;20.56;100.00
18275;BME280;19470;49.322;7.218;2022-10-16T04:27:03;98507.75;;;20.57;100.00
18275;BME280;19470;49.322;7.218;2022-10-16T04:29:29;98513.84;;;20.80;100.00
18275;BME280;19470;49.322;7.218;2022-10-16T04:31:57;98506.94;;;21.13;100.00
18275;BME280;19470;49.322;7.218;2022-10-16T04:34:24;98513.25;;;21.09;100.00
18275;BME280;19470;49.322;7.218;2022-10-16T04:36:50;98516.19;;;20.41;100.00
18275;BME280;19470;49.322;7.218;2022-10-16T04:39:17;98533.63;;;19.90;100.00
18275;BME280;19470;49.322;7.218;2022-10-16T04:41:44;98528.34;;;20.70;100.00
18275;BME280;19470;49.322;7.218;2022-10-16T04:44:10;98525.16;;;21.08;100.00
18275;BME280;19470;49.322;7.218;2022-10-16T04:46:37;98540.66;;;21.11;100.00
18275;BME280;19470;49.322;7.218;2022-10-16T04:49:05;98529.25;;;21.14;100.00
18275;BME280;19470;49.322;7.218;2022-10-16T04:51:32;98530.69;;;20.63;100.00
18275;BME280;19470;49.322;7.218;2022-10-16T04:53:58;98523.84;;;20.97;100.00
18275;BME280;19470;49.322;7.218;2022-10-16T04:56:25;98528.34;;;21.27;100.00
18275;BME280;19470;49.322;7.218;2022-10-16T04:58:51;98523.38;;;20.24;100.00
18275;BME280;19470;49.322;7.218;2022-10-16T05:01:18;98523.63;;;20.45;100.00
18275;BME280;19470;49.322;7.218;2022-10-16T05:03:44;98533.88;;;20.34;100.00
18275;BME280;19470;49.322;7.218;2022-10-16T05:06:12;98530.53;;;21.08;100.00
18275;BME280;19470;49.322;7.218;2022-10-16T05:08:38;98525.16;;;21.08;100.00
18275;BME280;19470;49.322;7.218;2022-10-16T05:11:05;98505.81;;;21.14;100.00
18275;BME280;19470;49.322;7.218;2022-10-16T05:16:01;98517.81;;;20.91;100.00
18275;BME280;19470;49.322;7.218;2022-10-16T05:18:27;98521.78;;;20.23;100.00
18275;BME280;19470;49.322;7.218;2022-10-16T05:20:54;98533.56;;;20.04;100.00
18275;BME280;19470;49.322;7.218;2022-10-16T05:23:22;98536.69;;;20.29;100.00
18275;BME280;19470;49.322;7.218;2022-10-16T05:25:54;98533.53;;;20.58;100.00
18275;BME280;19470;49.322;7.218;2022-10-16T05:28:23;98532.00;;;20.74;100.00
18275;BME280;19470;49.322;7.218;2022-10-16T05:30:50;98540.91;;;20.83;100.00
18275;BME280;19470;49.322;7.218;2022-10-16T05:33:16;98532.69;;;20.88;100.00
18275;BME280;19470;49.322;7.218;2022-10-16T05:35:43;98528.91;;;20.50;100.00
18275;BME280;19470;49.322;7.218;2022-10-16T05:38:10;98534.72;;;19.89;100.00
18275;BME280;19470;49.322;7.218;2022-10-16T05:40:38;98534.44;;;20.93;100.00
18275;BME280;19470;49.322;7.218;2022-10-16T05:43:04;98530.53;;;21.16;100.00
18275;BME280;19470;49.322;7.218;2022-10-16T05:45:31;98530.22;;;21.18;100.00
18275;BME280;19470;49.322;7.218;2022-10-16T05:47:57;98525.09;;;20.90;100.00
18275;BME280;19470;49.322;7.218;2022-10-16T05:50:24;98540.75;;;20.88;100.00
18275;BME280;19470;49.322;7.218;2022-10-16T05:52:50;98546.09;;;20.71;100.00
18275;BME280;19470;49.322;7.218;2022-10-16T05:55:17;98547.88;;;20.84;100.00
18275;BME280;19470;49.322;7.218;2022-10-16T05:57:45;98555.28;;;20.16;100.00
18275;BME280;19470;49.322;7.218;2022-10-16T06:00:12;98554.44;;;20.61;100.00
18275;BME280;19470;49.322;7.218;2022-10-16T06:02:38;98562.13;;;20.93;100.00
18275;BME280;19470;49.322;7.218;2022-10-16T06:05:05;98564.97;;;20.88;100.00
18275;BME280;19470;49.322;7.218;2022-10-16T06:07:34;98556.25;;;20.83;100.00
18275;BME280;19470;49.322;7.218;2022-10-16T06:10:01;98552.84;;;21.08;100.00
18275;BME280;19470;49.322;7.218;2022-10-16T06:12:27;98546.69;;;21.08;100.00
18275;BME280;19470;49.322;7.218;2022-10-16T06:14:55;98544.16;;;21.20;100.00
18275;BME280;19470;49.322;7.218;2022-10-16T06:17:22;98556.06;;;20.71;100.00
18275;BME280;19470;49.322;7.218;2022-10-16T06:19:48;98553.53;;;20.12;100.00
18275;BME280;19470;49.322;7.218;2022-10-16T06:22:15;98562.88;;;20.46;100.00
18275;BME280;19470;49.322;7.218;2022-10-16T06:24:41;98567.34;;;20.50;100.00
18275;BME280;19470;49.322;7.218;2022-10-16T06:27:08;98577.31;;;20.50;100.00
18275;BME280;19470;49.322;7.218;2022-10-16T06:29:34;98575.97;;;20.61;100.00
18275;BME280;19470;49.322;7.218;2022-10-16T06:32:02;98565.22;;;21.09;100.00
18275;BME280;19470;49.322;7.218;2022-10-16T06:34:29;98566.66;;;21.24;100.00
18275;BME280;19470;49.322;7.218;2022-10-16T06:36:55;98572.75;;;21.47;100.00
18275;BME280;19470;49.322;7.218;2022-10-16T06:39:22;98561.97;;;21.47;100.00
18275;BME280;19470;49.322;7.218;2022-10-16T06:41:48;98569.97;;;21.21;100.00
18275;BME280;19470;49.322;7.218;2022-10-16T06:44:15;98560.22;;;21.42;100.00
18275;BME280;19470;49.322;7.218;2022-10-16T06:46:41;98571.16;;;20.80;100.00
18275;BME280;19470;49.322;7.218;2022-10-16T06:49:09;98565.88;;;20.44;100.00
18275;BME280;19470;49.322;7.218;2022-10-16T06:51:36;98577.56;;;20.39;100.00
18275;BME280;19470;49.322;7.218;2022-10-16T06:54:06;98582.03;;;20.44;100.00
18275;BME280;19470;49.322;7.218;2022-10-16T06:56:33;98576.97;;;20.74;100.00
18275;BME280;19470;49.322;7.218;2022-10-16T06:59:00;98602.97;;;20.56;100.00
18275;BME280;19470;49.322;7.218;2022-10-16T07:01:27;98598.81;;;20.72;100.00
18275;BME280;19470;49.322;7.218;2022-10-16T07:03:54;98611.94;;;19.98;100.00
18275;BME280;19470;49.322;7.218;2022-10-16T07:06:23;98605.25;;;21.02;100.00
18275;BME280;19470;49.322;7.218;2022-10-16T07:08:51;98601.19;;;21.13;100.00
18275;BME280;19470;49.322;7.218;2022-10-16T07:11:20;98613.50;;;21.06;100.00
18275;BME280;19470;49.322;7.218;2022-10-16T07:13:48;98623.47;;;21.05;100.00
18275;BME280;19470;49.322;7.218;2022-10-16T07:16:16;98646.44;;;19.54;100.00
18275;BME280;19470;49.322;7.218;2022-10-16T07:18:43;98670.84;;;19.30;100.00
18275;BME280;19470;49.322;7.218;2022-10-16T07:21:13;98673.00;;;20.20;100.00
18275;BME280;19470;49.322;7.218;2022-10-16T07:23:41;98674.38;;;20.39;100.00
18275;BME280;19470;49.322;7.218;2022-10-16T07:26:08;98646.69;;;20.92;100.00
18275;BME280;19470;49.322;7.218;2022-10-16T07:28:36;98660.59;;;21.26;100.00
18275;BME280;19470;49.322;7.218;2022-10-16T07:31:04;98656.72;;;21.40;100.00
18275;BME280;19470;49.322;7.218;2022-10-16T07:33:32;98664.69;;;21.14;100.00
18275;BME280;19470;49.322;7.218;2022-10-16T07:35:59;98688.44;;;20.81;100.00
18275;BME280;19470;49.322;7.218;2022-10-16T07:38:26;98694.50;;;19.83;100.00
18275;BME280;19470;49.322;7.218;2022-10-16T07:40:58;98676.56;;;21.53;100.00
18275;BME280;19470;49.322;7.218;2022-10-16T07:43:25;98680.59;;;21.90;100.00
18275;BME280;19470;49.322;7.218;2022-10-16T07:45:51;98684.59;;;22.19;100.00
18275;BME280;19470;49.322;7.218;2022-10-16T07:48:18;98689.81;;;22.15;100.00
18275;BME280;19470;49.322;7.218;2022-10-16T07:50:45;98695.53;;;22.23;100.00
18275;BME280;19470;49.322;7.218;2022-10-16T07:53:12;98696.97;;;22.37;100.00
18275;BME280;19470;49.322;7.218;2022-10-16T07:55:40;98706.63;;;22.38;100.00
18275;BME280;19470;49.322;7.218;2022-10-16T07:58:08;98703.31;;;22.24;100.00
18275;BME280;19470;49.322;7.218;2022-10-16T08:00:36;98708.88;;;22.36;100.00
18275;BME280;19470;49.322;7.218;2022-10-16T08:03:03;98702.81;;;22.57;100.00
18275;BME280;19470;49.322;7.218;2022-10-16T08:05:31;98710.22;;;22.77;100.00
18275;BME280;19470;49.322;7.218;2022-10-16T08:07:58;98708.66;;;22.93;100.00
18275;BME280;19470;49.322;7.218;2022-10-16T08:10:26;98707.81;;;23.10;100.00
18275;BME280;19470;49.322;7.218;2022-10-16T08:12:53;98717.00;;;23.09;100.00
18275;BME280;19470;49.322;7.218;2022-10-16T08:15:21;98727.25;;;22.69;100.00
18275;BME280;19470;49.322;7.218;2022-10-16T08:17:54;98725.69;;;22.33;100.00
18275;BME280;19470;49.322;7.218;2022-10-16T08:20:21;98725.69;;;22.42;100.00
18275;BME280;19470;49.322;7.218;2022-10-16T08:22:47;98730.28;;;22.59;100.00
18275;BME280;19470;49.322;7.218;2022-10-16T08:25:14;98721.44;;;23.14;100.00
18275;BME280;19470;49.322;7.218;2022-10-16T08:27:50;98727.88;;;22.83;100.00
18275;BME280;19470;49.322;7.218;2022-10-16T08:30:20;98737.81;;;21.87;100.00
18275;BME280;19470;49.322;7.218;2022-10-16T08:36:10;98728.78;;;23.05;100.00
18275;BME280;19470;49.322;7.218;2022-10-16T08:38:37;98732.72;;;23.54;100.00
18275;BME280;19470;49.322;7.218;2022-10-16T08:41:22;98740.13;;;22.46;100.00
18275;BME280;19470;49.322;7.218;2022-10-16T08:46:50;98745.81;;;22.70;100.00
18275;BME280;19470;49.322;7.218;2022-10-16T09:09:44;98771.44;;;23.76;100.00
18275;BME280;19470;49.322;7.218;2022-10-16T09:12:18;98776.56;;;23.30;100.00
18275;BME280;19470;49.322;7.218;2022-10-16T09:18:17;98769.41;;;25.31;100.00
18275;BME280;19470;49.322;7.218;2022-10-16T09:20:50;98776.50;;;24.36;99.36
18275;BME280;19470;49.322;7.218;2022-10-16T09:23:19;98768.88;;;25.05;100.00
18275;BME280;19470;49.322;7.218;2022-10-16T09:25:49;98777.16;;;24.33;99.00
18275;BME280;19470;49.322;7.218;2022-10-16T09:28:16;98771.81;;;23.10;100.00
18275;BME280;19470;49.322;7.218;2022-10-16T09:30:44;98770.97;;;23.35;100.00
18275;BME280;19470;49.322;7.218;2022-10-16T09:33:12;98786.28;;;23.05;100.00
18275;BME280;19470;49.322;7.218;2022-10-16T09:35:42;98788.81;;;23.66;100.00
18275;BME280;19470;49.322;7.218;2022-10-16T09:38:09;98782.47;;;24.21;100.00
18275;BME280;19470;49.322;7.218;2022-10-16T09:40:48;98778.81;;;23.96;100.00
18275;BME280;19470;49.322;7.218;2022-10-16T09:43:21;98782.75;;;24.70;96.80
18275;BME280;19470;49.322;7.218;2022-10-16T09:45:57;98781.00;;;24.53;99.99
18275;BME280;19470;49.322;7.218;2022-10-16T09:48:25;98779.38;;;25.52;95.43
18275;BME280;19470;49.322;7.218;2022-10-16T09:50:57;98777.66;;;24.89;97.93
18275;BME280;19470;49.322;7.218;2022-10-16T09:53:38;98782.59;;;25.20;94.30
18275;BME280;19470;49.322;7.218;2022-10-16T09:56:06;98779.94;;;26.18;92.22
18275;BME280;19470;49.322;7.218;2022-10-16T09:58:33;98787.41;;;25.72;93.93
18275;BME280;19470;49.322;7.218;2022-10-16T10:01:00;98781.97;;;26.90;88.49
18275;BME280;19470;49.322;7.218;2022-10-16T10:03:33;98779.00;;;25.29;92.55
18275;BME280;19470;49.322;7.218;2022-10-16T10:06:06;98782.09;;;25.06;96.59
18275;BME280;19470;49.322;7.218;2022-10-16T10:08:33;98786.78;;;23.92;100.00
18275;BME280;19470;49.322;7.218;2022-10-16T10:11:00;98788.59;;;23.80;100.00
18275;BME280;19470;49.322;7.218;2022-10-16T10:13:28;98785.72;;;24.35;97.81
18275;BME280;19470;49.322;7.218;2022-10-16T10:15:54;98791.06;;;26.41;90.71
18275;BME280;19470;49.322;7.218;2022-10-16T10:18:22;98790.66;;;26.15;89.46
18275;BME280;19470;49.322;7.218;2022-10-16T10:20:57;98795.72;;;25.18;91.90
18275;BME280;19470;49.322;7.218;2022-10-16T10:23:25;98801.81;;;24.94;93.69
18275;BME280;19470;49.322;7.218;2022-10-16T10:25:56;98801.56;;;25.78;91.67
18275;BME280;19470;49.322;7.218;2022-10-16T10:31:56;98796.78;;;25.75;87.95
18275;BME280;19470;49.322;7.218;2022-10-16T10:34:42;98791.63;;;26.87;85.37
18275;BME280;19470;49.322;7.218;2022-10-16T10:40:47;98806.31;;;26.86;84.64
18275;BME280;19470;49.322;7.218;2022-10-16T10:43:29;98801.28;;;26.44;83.69
18275;BME280;19470;49.322;7.218;2022-10-16T10:46:00;98808.94;;;26.55;87.38
18275;BME280;19470;49.322;7.218;2022-10-16T10:48:46;98799.34;;;26.33;86.21
18275;BME280;19470;49.322;7.218;2022-10-16T10:51:23;98806.03;;;26.23;86.93
18275;BME280;19470;49.322;7.218;2022-10-16T10:53:57;98817.50;;;25.80;88.29
18275;BME280;19470;49.322;7.218;2022-10-16T10:56:42;98817.59;;;25.95;88.81
18275;BME280;19470;49.322;7.218;2022-10-16T10:59:28;98809.47;;;25.95;90.37
18275;BME280;19470;49.322;7.218;2022-10-16T11:01:59;98810.41;;;24.96;95.22
18275;BME280;19470;49.322;7.218;2022-10-16T11:04:42;98815.34;;;25.15;93.76
18275;BME280;19470;49.322;7.218;2022-10-16T11:07:19;98812.44;;;24.99;95.43
18275;BME280;19470;49.322;7.218;2022-10-16T11:09:52;98805.81;;;25.42;92.82
18275;BME280;19470;49.322;7.218;2022-10-16T11:12:21;98811.97;;;24.97;94.30
18275;BME280;19470;49.322;7.218;2022-10-16T11:14:56;98809.78;;;24.58;96.37
18275;BME280;19470;49.322;7.218;2022-10-16T11:17:28;98815.88;;;24.88;96.93
18275;BME280;19470;49.322;7.218;2022-10-16T11:20:02;98814.97;;;24.84;95.09
18275;BME280;19470;49.322;7.218;2022-10-16T11:22:34;98810.03;;;24.86;96.70
18275;BME280;19470;49.322;7.218;2022-10-16T11:25:06;98808.72;;;24.71;98.65
18275;BME280;19470;49.322;7.218;2022-10-16T11:27:40;98820.72;;;24.82;97.74
18275;BME280;19470;49.322;7.218;2022-10-16T11:30:14;98817.63;;;25.26;94.65
18275;BME280;19470;49.322;7.218;2022-10-16T11:32:51;98816.34;;;25.56;93.77
18275;BME280;19470;49.322;7.218;2022-10-16T11:35:23;98812.59;;;25.61;92.24
18275;BME280;19470;49.322;7.218;2022-10-16T11:37:51;98820.78;;;25.97;89.72
18275;BME280;19470;49.322;7.218;2022-10-16T11:40:23;98815.44;;;26.01;88.06
18275;BME280;19470;49.322;7.218;2022-10-16T11:42:54;98814.19;;;24.83;94.19
18275;BME280;19470;49.322;7.218;2022-10-16T11:45:30;98804.44;;;25.36;93.83
18275;BME280;19470;49.322;7.218;2022-10-16T11:48:02;98800.91;;;25.36;91.57
18275;BME280;19470;49.322;7.218;2022-10-16T11:50:37;98799.06;;;25.61;91.74
18275;BME280;19470;49.322;7.218;2022-10-16T11:53:14;98796.06;;;25.29;89.61
18275;BME280;19470;49.322;7.218;2022-10-16T11:55:44;98793.16;;;25.46;91.42
18275;BME280;19470;49.322;7.218;2022-10-16T11:58:19;98799.81;;;25.37;92.59
18275;BME280;19470;49.322;7.218;2022-10-16T12:00:55;98794.72;;;25.35;92.17
18275;BME280;19470;49.322;7.218;2022-10-16T12:03:27;98787.19;;;25.65;91.38
18275;BME280;19470;49.322;7.218;2022-10-16T12:06:06;98790.78;;;25.57;92.51
18275;BME280;19470;49.322;7.218;2022-10-16T12:08:38;98791.78;;;25.40;91.80
18275;BME280;19470;49.322;7.218;2022-10-16T12:11:09;98795.13;;;24.59;96.01
18275;BME280;19470;49.322;7.218;2022-10-16T12:13:45;98788.38;;;25.31;93.06
18275;BME280;19470;49.322;7.218;2022-10-16T12:16:22;98790.72;;;24.87;94.62
18275;BME280;19470;49.322;7.218;2022-10-16T12:18:49;98790.63;;;24.63;97.90
18275;BME280;19470;49.322;7.218;2022-10-16T12:21:31;98785.84;;;24.81;96.12
18275;BME280;19470;49.322;7.218;2022-10-16T12:23:58;98781.66;;;24.83;95.03
18275;BME280;19470;49.322;7.218;2022-10-16T12:26:28;98783.78;;;24.98;95.68
18275;BME280;19470;49.322;7.218;2022-10-16T12:29:12;98777.91;;;25.42;92.54
18275;BME280;19470;49.322;7.218;2022-10-16T12:31:43;98777.91;;;25.66;92.09
18275;BME280;19470;49.322;7.218;2022-10-16T12:34:21;98779.75;;;25.87;90.83
18275;BME280;19470;49.322;7.218;2022-10-16T12:36:51;98785.88;;;25.84;90.00
18275;BME280;19470;49.322;7.218;2022-10-16T12:39:21;98775.53;;;26.14;88.49
18275;BME280;19470;49.322;7.218;2022-10-16T12:42:00;98774.81;;;25.19;96.39
18275;BME280;19470;49.322;7.218;2022-10-16T12:44:32;98776.78;;;26.04;91.27
18275;BME280;19470;49.322;7.218;2022-10-16T12:46:59;98780.97;;;26.14;90.02
18275;BME280;19470;49.322;7.218;2022-10-16T12:49:35;98782.94;;;26.29;89.14
18275;BME280;19470;49.322;7.218;2022-10-16T12:52:04;98781.06;;;25.68;91.96
18275;BME280;19470;49.322;7.218;2022-10-16T12:54:35;98776.00;;;25.91;92.12
18275;BME280;19470;49.322;7.218;2022-10-16T12:57:09;98776.44;;;26.18;92.04
18275;BME280;19470;49.322;7.218;2022-10-16T12:59:43;98779.13;;;26.30;90.42
18275;BME280;19470;49.322;7.218;2022-10-16T13:02:39;98779.84;;;26.03;91.75
18275;BME280;19470;49.322;7.218;2022-10-16T13:05:23;98780.06;;;26.10;92.59
18275;BME280;19470;49.322;7.218;2022-10-16T13:08:02;98783.94;;;25.84;90.17
18275;BME280;19470;49.322;7.218;2022-10-16T13:10:38;98783.66;;;25.53;93.45
18275;BME280;19470;49.322;7.218;2022-10-16T13:13:31;98776.41;;;25.44;93.07
18275;BME280;19470;49.322;7.218;2022-10-16T13:16:12;98778.03;;;25.45;94.20
18275;BME280;19470;49.322;7.218;2022-10-16T13:18:51;98786.78;;;25.30;92.76
18275;BME280;19470;49.322;7.218;2022-10-16T13:21:33;98785.47;;;25.73;89.36
18275;BME280;19470;49.322;7.218;2022-10-16T13:24:12;98791.59;;;25.82;88.78
18275;BME280;19470;49.322;7.218;2022-10-16T13:26:53;98784.38;;;25.98;86.89
18275;BME280;19470;49.322;7.218;2022-10-16T13:29:22;98786.22;;;26.35;84.30
18275;BME280;19470;49.322;7.218;2022-10-16T13:31:49;98789.53;;;26.16;85.41
18275;BME280;19470;49.322;7.218;2022-10-16T13:34:18;98788.91;;;25.82;87.35
18275;BME280;19470;49.322;7.218;2022-10-16T13:36:47;98785.03;;;26.08;85.99
18275;BME280;19470;49.322;7.218;2022-10-16T13:39:22;98780.84;;;25.61;84.57
18275;BME280;19470;49.322;7.218;2022-10-16T13:42:00;98782.56;;;25.90;83.52
18275;BME280;19470;49.322;7.218;2022-10-16T13:44:31;98789.16;;;26.42;81.91
18275;BME280;19470;49.322;7.218;2022-10-16T13:47:02;98789.09;;;26.26;82.09